sensor_id;sensor_type;location;lat;lon;timestamp;temperature;humidity
62259;DHT22;48241;48.824;10.102;2023-05-24T00:00:40;15.00;81.50
62259;DHT22;48241;48.824;10.102;2023-05-24T00:03:06;15.00;80.80
62259;DHT22;48241;48.824;10.102;2023-05-24T00:05:32;15.00;81.30
62259;DHT22;48241;48.824;10.102;2023-05-24T00:07:58;14.90;81.80
62259;DHT22;48241;48.824;10.102;2023-05-24T00:10:24;15.20;81.60
62259;DHT22;48241;48.824;10.102;2023-05-24T00:12:50;15.00;80.00
62259;DHT22;48241;48.824;10.102;2023-05-24T00:15:15;14.90;81.30
62259;DHT22;48241;48.824;10.102;2023-05-24T00:17:41;15.40;81.80
62259;DHT22;48241;48.824;10.102;2023-05-24T00:20:10;15.00;81.30
62259;DHT22;48241;48.824;10.102;2023-05-24T00:22:37;15.10;81.60
62259;DHT22;48241;48.824;10.102;2023-05-24T00:25:03;15.20;81.20
62259;DHT22;48241;48.824;10.102;2023-05-24T00:27:29;15.10;80.50
62259;DHT22;48241;48.824;10.102;2023-05-24T00:29:55;14.90;79.90
62259;DHT22;48241;48.824;10.102;2023-05-24T00:32:20;15.60;80.70
62259;DHT22;48241;48.824;10.102;2023-05-24T00:34:46;15.00;80.40
62259;DHT22;48241;48.824;10.102;2023-05-24T00:37:12;15.40;80.00
62259;DHT22;48241;48.824;10.102;2023-05-24T00:39:38;15.40;80.30
62259;DHT22;48241;48.824;10.102;2023-05-24T00:42:04;15.00;80.40
62259;DHT22;48241;48.824;10.102;2023-05-24T00:44:30;14.90;80.70
62259;DHT22;48241;48.824;10.102;2023-05-24T00:46:56;14.90;80.30
62259;DHT22;48241;48.824;10.102;2023-05-24T00:49:22;14.90;80.70
62259;DHT22;48241;48.824;10.102;2023-05-24T00:51:49;14.80;81.40
62259;DHT22;48241;48.824;10.102;2023-05-24T00:54:15;14.70;81.60
62259;DHT22;48241;48.824;10.102;2023-05-24T00:56:42;14.80;81.80
62259;DHT22;48241;48.824;10.102;2023-05-24T00:59:08;14.60;81.40
62259;DHT22;48241;48.824;10.102;2023-05-24T01:01:33;14.70;81.40
62259;DHT22;48241;48.824;10.102;2023-05-24T01:03:59;14.90;80.60
62259;DHT22;48241;48.824;10.102;2023-05-24T01:06:26;14.90;81.20
62259;DHT22;48241;48.824;10.102;2023-05-24T01:11:57;14.80;80.90
62259;DHT22;48241;48.824;10.102;2023-05-24T01:22:23;14.40;82.40
62259;DHT22;48241;48.824;10.102;2023-05-24T01:25:03;14.50;82.40
62259;DHT22;48241;48.824;10.102;2023-05-24T01:27:33;14.50;82.60
62259;DHT22;48241;48.824;10.102;2023-05-24T01:30:00;14.50;82.70
62259;DHT22;48241;48.824;10.102;2023-05-24T01:32:26;14.50;83.30
62259;DHT22;48241;48.824;10.102;2023-05-24T01:34:52;14.70;82.50
62259;DHT22;48241;48.824;10.102;2023-05-24T01:37:18;14.30;81.00
62259;DHT22;48241;48.824;10.102;2023-05-24T01:39:44;14.30;80.60
62259;DHT22;48241;48.824;10.102;2023-05-24T01:45:24;14.10;80.00
62259;DHT22;48241;48.824;10.102;2023-05-24T01:53:23;13.90;80.10
62259;DHT22;48241;48.824;10.102;2023-05-24T01:55:55;14.00;80.80
62259;DHT22;48241;48.824;10.102;2023-05-24T01:58:22;13.70;81.40
62259;DHT22;48241;48.824;10.102;2023-05-24T02:00:50;13.60;81.00
62259;DHT22;48241;48.824;10.102;2023-05-24T02:03:16;13.60;81.00
62259;DHT22;48241;48.824;10.102;2023-05-24T02:05:42;13.70;81.20
62259;DHT22;48241;48.824;10.102;2023-05-24T02:08:09;13.90;81.30
62259;DHT22;48241;48.824;10.102;2023-05-24T02:10:35;13.60;81.50
62259;DHT22;48241;48.824;10.102;2023-05-24T02:13:04;14.60;81.60
62259;DHT22;48241;48.824;10.102;2023-05-24T02:15:29;13.70;81.50
62259;DHT22;48241;48.824;10.102;2023-05-24T02:17:55;13.70;81.70
62259;DHT22;48241;48.824;10.102;2023-05-24T02:20:21;14.50;81.70
62259;DHT22;48241;48.824;10.102;2023-05-24T02:22:47;14.50;82.10
62259;DHT22;48241;48.824;10.102;2023-05-24T02:25:13;13.70;81.20
62259;DHT22;48241;48.824;10.102;2023-05-24T02:27:38;14.00;81.40
62259;DHT22;48241;48.824;10.102;2023-05-24T02:30:05;13.60;81.50
62259;DHT22;48241;48.824;10.102;2023-05-24T02:32:31;13.50;82.20
62259;DHT22;48241;48.824;10.102;2023-05-24T02:34:57;13.40;82.80
62259;DHT22;48241;48.824;10.102;2023-05-24T02:37:24;13.10;82.70
62259;DHT22;48241;48.824;10.102;2023-05-24T02:39:49;13.10;83.00
62259;DHT22;48241;48.824;10.102;2023-05-24T02:42:15;13.10;81.70
62259;DHT22;48241;48.824;10.102;2023-05-24T02:44:41;13.40;82.70
62259;DHT22;48241;48.824;10.102;2023-05-24T02:47:13;13.00;83.40
62259;DHT22;48241;48.824;10.102;2023-05-24T02:49:38;13.00;82.50
62259;DHT22;48241;48.824;10.102;2023-05-24T02:52:04;13.10;83.00
62259;DHT22;48241;48.824;10.102;2023-05-24T02:54:30;12.90;82.30
62259;DHT22;48241;48.824;10.102;2023-05-24T02:56:56;13.00;82.60
62259;DHT22;48241;48.824;10.102;2023-05-24T02:59:23;13.20;84.30
62259;DHT22;48241;48.824;10.102;2023-05-24T03:01:48;13.00;84.00
62259;DHT22;48241;48.824;10.102;2023-05-24T03:04:14;13.10;84.20
62259;DHT22;48241;48.824;10.102;2023-05-24T03:06:39;13.30;85.30
62259;DHT22;48241;48.824;10.102;2023-05-24T03:09:05;12.90;84.50
62259;DHT22;48241;48.824;10.102;2023-05-24T03:11:31;12.80;85.30
62259;DHT22;48241;48.824;10.102;2023-05-24T03:13:56;12.90;85.80
62259;DHT22;48241;48.824;10.102;2023-05-24T03:16:22;13.20;85.60
62259;DHT22;48241;48.824;10.102;2023-05-24T03:18:48;12.90;85.70
62259;DHT22;48241;48.824;10.102;2023-05-24T03:21:16;12.90;86.00
62259;DHT22;48241;48.824;10.102;2023-05-24T03:23:44;12.80;86.60
62259;DHT22;48241;48.824;10.102;2023-05-24T03:26:10;12.80;86.40
62259;DHT22;48241;48.824;10.102;2023-05-24T03:28:37;12.60;86.70
62259;DHT22;48241;48.824;10.102;2023-05-24T03:31:05;12.60;87.10
62259;DHT22;48241;48.824;10.102;2023-05-24T03:33:31;12.60;86.60
62259;DHT22;48241;48.824;10.102;2023-05-24T03:35:57;12.50;87.70
62259;DHT22;48241;48.824;10.102;2023-05-24T03:38:22;12.50;87.90
62259;DHT22;48241;48.824;10.102;2023-05-24T03:40:48;12.50;87.70
62259;DHT22;48241;48.824;10.102;2023-05-24T03:43:13;12.50;86.90
62259;DHT22;48241;48.824;10.102;2023-05-24T03:45:39;13.40;87.90
62259;DHT22;48241;48.824;10.102;2023-05-24T03:48:05;12.60;86.80
62259;DHT22;48241;48.824;10.102;2023-05-24T03:50:30;12.70;87.00
62259;DHT22;48241;48.824;10.102;2023-05-24T03:52:56;12.70;86.20
62259;DHT22;48241;48.824;10.102;2023-05-24T03:55:21;12.80;85.90
62259;DHT22;48241;48.824;10.102;2023-05-24T03:57:47;13.80;84.70
62259;DHT22;48241;48.824;10.102;2023-05-24T04:00:13;12.60;83.70
62259;DHT22;48241;48.824;10.102;2023-05-24T04:02:39;12.50;84.90
62259;DHT22;48241;48.824;10.102;2023-05-24T04:05:05;12.50;84.90
62259;DHT22;48241;48.824;10.102;2023-05-24T04:07:38;12.40;84.40
62259;DHT22;48241;48.824;10.102;2023-05-24T04:10:05;12.60;84.30
62259;DHT22;48241;48.824;10.102;2023-05-24T04:12:31;12.80;84.30
62259;DHT22;48241;48.824;10.102;2023-05-24T04:14:58;12.70;83.90
62259;DHT22;48241;48.824;10.102;2023-05-24T04:17:23;14.00;84.90
62259;DHT22;48241;48.824;10.102;2023-05-24T04:19:50;12.40;82.90
62259;DHT22;48241;48.824;10.102;2023-05-24T04:22:16;13.40;83.10
62259;DHT22;48241;48.824;10.102;2023-05-24T04:24:45;14.60;83.90
62259;DHT22;48241;48.824;10.102;2023-05-24T04:27:11;13.40;82.20
62259;DHT22;48241;48.824;10.102;2023-05-24T04:29:40;13.50;81.30
62259;DHT22;48241;48.824;10.102;2023-05-24T04:32:06;13.60;81.40
62259;DHT22;48241;48.824;10.102;2023-05-24T04:34:31;13.60;82.10
62259;DHT22;48241;48.824;10.102;2023-05-24T04:37:00;13.70;80.40
62259;DHT22;48241;48.824;10.102;2023-05-24T04:39:27;13.50;81.20
62259;DHT22;48241;48.824;10.102;2023-05-24T04:41:53;14.20;80.90
62259;DHT22;48241;48.824;10.102;2023-05-24T04:44:20;13.60;80.80
62259;DHT22;48241;48.824;10.102;2023-05-24T04:46:46;14.00;81.20
62259;DHT22;48241;48.824;10.102;2023-05-24T04:49:11;13.70;80.80
62259;DHT22;48241;48.824;10.102;2023-05-24T04:51:37;13.80;80.60
62259;DHT22;48241;48.824;10.102;2023-05-24T04:54:04;13.70;79.40
62259;DHT22;48241;48.824;10.102;2023-05-24T04:56:33;13.70;80.90
62259;DHT22;48241;48.824;10.102;2023-05-24T04:59:00;14.00;80.30
62259;DHT22;48241;48.824;10.102;2023-05-24T05:01:25;13.90;80.80
62259;DHT22;48241;48.824;10.102;2023-05-24T05:03:51;14.30;80.10
62259;DHT22;48241;48.824;10.102;2023-05-24T05:06:16;14.10;79.50
62259;DHT22;48241;48.824;10.102;2023-05-24T05:08:42;14.00;79.10
62259;DHT22;48241;48.824;10.102;2023-05-24T05:11:08;13.90;79.10
62259;DHT22;48241;48.824;10.102;2023-05-24T05:13:34;13.90;79.20
62259;DHT22;48241;48.824;10.102;2023-05-24T05:16:00;13.90;79.60
62259;DHT22;48241;48.824;10.102;2023-05-24T05:18:26;14.30;78.90
62259;DHT22;48241;48.824;10.102;2023-05-24T05:20:51;14.10;78.70
62259;DHT22;48241;48.824;10.102;2023-05-24T05:23:17;14.20;77.90
62259;DHT22;48241;48.824;10.102;2023-05-24T05:25:42;14.10;78.60
62259;DHT22;48241;48.824;10.102;2023-05-24T05:28:08;14.10;78.90
62259;DHT22;48241;48.824;10.102;2023-05-24T05:30:33;14.30;78.20
62259;DHT22;48241;48.824;10.102;2023-05-24T05:32:59;15.20;78.40
62259;DHT22;48241;48.824;10.102;2023-05-24T05:35:24;14.50;79.00
62259;DHT22;48241;48.824;10.102;2023-05-24T05:37:50;14.50;75.50
62259;DHT22;48241;48.824;10.102;2023-05-24T05:40:16;14.70;75.50
62259;DHT22;48241;48.824;10.102;2023-05-24T05:42:41;14.90;75.60
62259;DHT22;48241;48.824;10.102;2023-05-24T05:45:07;15.70;76.20
62259;DHT22;48241;48.824;10.102;2023-05-24T05:47:33;14.60;75.20
62259;DHT22;48241;48.824;10.102;2023-05-24T05:49:58;14.60;74.70
62259;DHT22;48241;48.824;10.102;2023-05-24T05:52:24;14.70;75.30
62259;DHT22;48241;48.824;10.102;2023-05-24T05:54:49;14.40;75.70
62259;DHT22;48241;48.824;10.102;2023-05-24T05:57:15;14.40;76.20
62259;DHT22;48241;48.824;10.102;2023-05-24T05:59:43;15.30;76.30
62259;DHT22;48241;48.824;10.102;2023-05-24T06:02:09;15.00;76.40
62259;DHT22;48241;48.824;10.102;2023-05-24T06:04:36;15.00;74.90
62259;DHT22;48241;48.824;10.102;2023-05-24T06:07:02;15.70;74.00
62259;DHT22;48241;48.824;10.102;2023-05-24T06:09:28;15.50;72.30
62259;DHT22;48241;48.824;10.102;2023-05-24T06:11:53;15.50;73.20
62259;DHT22;48241;48.824;10.102;2023-05-24T06:14:19;16.30;73.40
62259;DHT22;48241;48.824;10.102;2023-05-24T06:16:46;15.40;72.60
62259;DHT22;48241;48.824;10.102;2023-05-24T06:19:12;15.40;72.90
62259;DHT22;48241;48.824;10.102;2023-05-24T06:21:38;16.50;72.40
62259;DHT22;48241;48.824;10.102;2023-05-24T06:24:05;16.00;71.80
62259;DHT22;48241;48.824;10.102;2023-05-24T06:26:35;16.10;70.10
62259;DHT22;48241;48.824;10.102;2023-05-24T06:29:01;16.20;70.00
62259;DHT22;48241;48.824;10.102;2023-05-24T06:31:27;16.10;69.00
62259;DHT22;48241;48.824;10.102;2023-05-24T06:33:52;16.60;68.60
62259;DHT22;48241;48.824;10.102;2023-05-24T06:36:18;16.70;68.60
62259;DHT22;48241;48.824;10.102;2023-05-24T06:38:43;17.20;66.00
62259;DHT22;48241;48.824;10.102;2023-05-24T06:41:09;17.10;64.00
62259;DHT22;48241;48.824;10.102;2023-05-24T06:43:34;17.20;64.90
62259;DHT22;48241;48.824;10.102;2023-05-24T06:46:00;17.50;65.70
62259;DHT22;48241;48.824;10.102;2023-05-24T06:48:26;17.70;63.40
62259;DHT22;48241;48.824;10.102;2023-05-24T06:50:51;17.20;64.00
62259;DHT22;48241;48.824;10.102;2023-05-24T06:53:17;17.80;62.50
62259;DHT22;48241;48.824;10.102;2023-05-24T06:55:42;17.90;62.40
62259;DHT22;48241;48.824;10.102;2023-05-24T06:58:08;17.50;62.40
62259;DHT22;48241;48.824;10.102;2023-05-24T07:00:41;17.70;63.70
62259;DHT22;48241;48.824;10.102;2023-05-24T07:03:08;17.50;62.90
62259;DHT22;48241;48.824;10.102;2023-05-24T07:05:34;17.30;63.70
62259;DHT22;48241;48.824;10.102;2023-05-24T07:08:00;17.10;64.90
62259;DHT22;48241;48.824;10.102;2023-05-24T07:10:26;17.50;64.70
62259;DHT22;48241;48.824;10.102;2023-05-24T07:12:51;17.70;64.20
62259;DHT22;48241;48.824;10.102;2023-05-24T07:15:17;17.20;64.40
62259;DHT22;48241;48.824;10.102;2023-05-24T07:17:42;16.80;65.80
62259;DHT22;48241;48.824;10.102;2023-05-24T07:20:09;16.90;65.60
62259;DHT22;48241;48.824;10.102;2023-05-24T07:22:35;16.90;64.60
62259;DHT22;48241;48.824;10.102;2023-05-24T07:25:01;16.90;63.50
62259;DHT22;48241;48.824;10.102;2023-05-24T07:27:27;17.60;64.50
62259;DHT22;48241;48.824;10.102;2023-05-24T07:29:55;17.80;64.10
62259;DHT22;48241;48.824;10.102;2023-05-24T07:32:21;17.50;62.40
62259;DHT22;48241;48.824;10.102;2023-05-24T07:34:47;17.80;62.20
62259;DHT22;48241;48.824;10.102;2023-05-24T07:37:12;19.20;62.00
62259;DHT22;48241;48.824;10.102;2023-05-24T07:39:38;18.60;61.10
62259;DHT22;48241;48.824;10.102;2023-05-24T07:42:04;19.30;59.10
62259;DHT22;48241;48.824;10.102;2023-05-24T07:44:30;19.30;57.90
62259;DHT22;48241;48.824;10.102;2023-05-24T07:46:56;19.60;58.50
62259;DHT22;48241;48.824;10.102;2023-05-24T07:49:22;19.20;57.90
62259;DHT22;48241;48.824;10.102;2023-05-24T07:51:48;19.30;58.20
62259;DHT22;48241;48.824;10.102;2023-05-24T07:54:13;18.70;57.20
62259;DHT22;48241;48.824;10.102;2023-05-24T07:56:41;18.50;58.20
62259;DHT22;48241;48.824;10.102;2023-05-24T07:59:06;18.60;57.40
62259;DHT22;48241;48.824;10.102;2023-05-24T08:01:33;18.70;56.60
62259;DHT22;48241;48.824;10.102;2023-05-24T08:04:02;18.40;57.50
62259;DHT22;48241;48.824;10.102;2023-05-24T08:06:29;18.50;57.80
62259;DHT22;48241;48.824;10.102;2023-05-24T08:08:55;18.00;58.10
62259;DHT22;48241;48.824;10.102;2023-05-24T08:11:21;17.70;58.90
62259;DHT22;48241;48.824;10.102;2023-05-24T08:13:47;17.30;59.30
62259;DHT22;48241;48.824;10.102;2023-05-24T08:16:12;17.20;59.90
62259;DHT22;48241;48.824;10.102;2023-05-24T08:18:41;16.80;60.50
62259;DHT22;48241;48.824;10.102;2023-05-24T08:21:07;16.50;61.70
62259;DHT22;48241;48.824;10.102;2023-05-24T08:23:33;17.20;63.60
62259;DHT22;48241;48.824;10.102;2023-05-24T08:25:59;16.80;63.90
62259;DHT22;48241;48.824;10.102;2023-05-24T08:28:25;18.00;62.90
62259;DHT22;48241;48.824;10.102;2023-05-24T08:30:52;18.00;60.90
62259;DHT22;48241;48.824;10.102;2023-05-24T08:33:18;18.30;62.90
62259;DHT22;48241;48.824;10.102;2023-05-24T08:35:43;19.30;59.40
62259;DHT22;48241;48.824;10.102;2023-05-24T08:38:09;18.70;59.30
62259;DHT22;48241;48.824;10.102;2023-05-24T08:40:35;18.80;58.50
62259;DHT22;48241;48.824;10.102;2023-05-24T08:43:01;18.60;57.50
62259;DHT22;48241;48.824;10.102;2023-05-24T08:45:31;18.70;57.30
62259;DHT22;48241;48.824;10.102;2023-05-24T08:48:04;18.60;57.50
62259;DHT22;48241;48.824;10.102;2023-05-24T08:50:30;18.60;57.10
62259;DHT22;48241;48.824;10.102;2023-05-24T08:52:57;18.20;57.30
62259;DHT22;48241;48.824;10.102;2023-05-24T08:55:23;18.50;58.60
62259;DHT22;48241;48.824;10.102;2023-05-24T08:57:50;18.40;59.00
62259;DHT22;48241;48.824;10.102;2023-05-24T09:00:17;18.50;58.00
62259;DHT22;48241;48.824;10.102;2023-05-24T09:02:45;18.50;57.10
62259;DHT22;48241;48.824;10.102;2023-05-24T09:05:12;19.10;57.50
62259;DHT22;48241;48.824;10.102;2023-05-24T09:07:45;18.40;57.60
62259;DHT22;48241;48.824;10.102;2023-05-24T09:10:11;19.10;57.20
62259;DHT22;48241;48.824;10.102;2023-05-24T09:12:38;18.30;55.70
62259;DHT22;48241;48.824;10.102;2023-05-24T09:15:05;18.80;57.00
62259;DHT22;48241;48.824;10.102;2023-05-24T09:17:37;18.40;56.70
62259;DHT22;48241;48.824;10.102;2023-05-24T09:20:28;18.20;56.40
62259;DHT22;48241;48.824;10.102;2023-05-24T09:22:55;18.40;56.40
62259;DHT22;48241;48.824;10.102;2023-05-24T09:25:21;19.40;57.20
62259;DHT22;48241;48.824;10.102;2023-05-24T09:27:52;18.70;56.10
62259;DHT22;48241;48.824;10.102;2023-05-24T09:30:18;19.00;56.30
62259;DHT22;48241;48.824;10.102;2023-05-24T09:32:54;19.00;56.80
62259;DHT22;48241;48.824;10.102;2023-05-24T09:35:21;18.70;57.00
62259;DHT22;48241;48.824;10.102;2023-05-24T09:37:46;18.50;55.70
62259;DHT22;48241;48.824;10.102;2023-05-24T09:40:19;18.60;56.00
62259;DHT22;48241;48.824;10.102;2023-05-24T09:42:45;18.20;57.10
62259;DHT22;48241;48.824;10.102;2023-05-24T09:45:11;17.50;57.50
62259;DHT22;48241;48.824;10.102;2023-05-24T09:47:38;17.90;57.80
62259;DHT22;48241;48.824;10.102;2023-05-24T09:50:15;17.60;57.90
62259;DHT22;48241;48.824;10.102;2023-05-24T09:52:42;17.70;58.60
62259;DHT22;48241;48.824;10.102;2023-05-24T09:55:26;18.10;59.20
62259;DHT22;48241;48.824;10.102;2023-05-24T09:58:02;18.00;58.70
62259;DHT22;48241;48.824;10.102;2023-05-24T10:00:28;18.30;58.40
62259;DHT22;48241;48.824;10.102;2023-05-24T10:03:05;18.70;58.00
62259;DHT22;48241;48.824;10.102;2023-05-24T10:05:32;18.60;57.10
62259;DHT22;48241;48.824;10.102;2023-05-24T10:07:58;18.70;57.00
62259;DHT22;48241;48.824;10.102;2023-05-24T10:10:30;18.90;55.40
62259;DHT22;48241;48.824;10.102;2023-05-24T10:12:56;18.90;54.50
62259;DHT22;48241;48.824;10.102;2023-05-24T10:15:23;19.20;54.80
62259;DHT22;48241;48.824;10.102;2023-05-24T10:17:50;18.70;55.00
62259;DHT22;48241;48.824;10.102;2023-05-24T10:20:16;19.50;55.70
62259;DHT22;48241;48.824;10.102;2023-05-24T10:22:44;19.10;56.90
62259;DHT22;48241;48.824;10.102;2023-05-24T10:25:14;19.60;55.30
62259;DHT22;48241;48.824;10.102;2023-05-24T10:27:41;19.70;54.50
62259;DHT22;48241;48.824;10.102;2023-05-24T10:30:25;18.80;54.50
62259;DHT22;48241;48.824;10.102;2023-05-24T10:32:54;18.50;55.90
62259;DHT22;48241;48.824;10.102;2023-05-24T10:35:21;19.20;56.20
62259;DHT22;48241;48.824;10.102;2023-05-24T10:37:48;18.30;57.50
62259;DHT22;48241;48.824;10.102;2023-05-24T10:40:21;18.50;57.20
62259;DHT22;48241;48.824;10.102;2023-05-24T10:42:50;18.40;55.30
62259;DHT22;48241;48.824;10.102;2023-05-24T10:45:29;16.70;55.00
62259;DHT22;48241;48.824;10.102;2023-05-24T10:48:00;18.20;56.80
62259;DHT22;48241;48.824;10.102;2023-05-24T10:50:27;17.80;56.90
62259;DHT22;48241;48.824;10.102;2023-05-24T10:53:13;18.10;58.20
62259;DHT22;48241;48.824;10.102;2023-05-24T10:55:56;18.30;56.90
62259;DHT22;48241;48.824;10.102;2023-05-24T10:58:27;18.40;58.10
62259;DHT22;48241;48.824;10.102;2023-05-24T11:01:28;18.40;56.20
62259;DHT22;48241;48.824;10.102;2023-05-24T11:04:07;18.40;55.40
62259;DHT22;48241;48.824;10.102;2023-05-24T11:06:55;17.80;56.20
62259;DHT22;48241;48.824;10.102;2023-05-24T11:09:23;17.70;56.80
62259;DHT22;48241;48.824;10.102;2023-05-24T11:11:52;17.90;57.10
62259;DHT22;48241;48.824;10.102;2023-05-24T11:14:21;18.00;56.30
62259;DHT22;48241;48.824;10.102;2023-05-24T11:16:48;18.10;56.50
62259;DHT22;48241;48.824;10.102;2023-05-24T11:19:23;17.60;56.70
62259;DHT22;48241;48.824;10.102;2023-05-24T11:21:51;17.40;56.60
62259;DHT22;48241;48.824;10.102;2023-05-24T11:24:18;17.30;58.70
62259;DHT22;48241;48.824;10.102;2023-05-24T11:26:44;17.20;59.30
62259;DHT22;48241;48.824;10.102;2023-05-24T11:29:14;17.20;59.50
62259;DHT22;48241;48.824;10.102;2023-05-24T11:31:52;16.80;58.50
62259;DHT22;48241;48.824;10.102;2023-05-24T11:34:19;16.70;59.10
62259;DHT22;48241;48.824;10.102;2023-05-24T11:36:45;16.90;59.90
62259;DHT22;48241;48.824;10.102;2023-05-24T11:39:12;17.80;60.20
62259;DHT22;48241;48.824;10.102;2023-05-24T11:41:39;16.90;58.80
62259;DHT22;48241;48.824;10.102;2023-05-24T11:44:09;16.60;58.80
62259;DHT22;48241;48.824;10.102;2023-05-24T11:46:35;16.80;60.70
62259;DHT22;48241;48.824;10.102;2023-05-24T11:49:03;16.50;59.70
62259;DHT22;48241;48.824;10.102;2023-05-24T11:51:30;16.90;60.10
62259;DHT22;48241;48.824;10.102;2023-05-24T11:53:57;16.70;61.00
62259;DHT22;48241;48.824;10.102;2023-05-24T11:56:24;17.10;58.40
62259;DHT22;48241;48.824;10.102;2023-05-24T11:58:58;16.90;57.70
62259;DHT22;48241;48.824;10.102;2023-05-24T12:01:25;18.20;58.90
62259;DHT22;48241;48.824;10.102;2023-05-24T12:03:52;17.50;57.70
62259;DHT22;48241;48.824;10.102;2023-05-24T12:06:18;17.20;57.60
62259;DHT22;48241;48.824;10.102;2023-05-24T12:08:44;17.10;56.70
62259;DHT22;48241;48.824;10.102;2023-05-24T12:11:10;17.80;56.00
62259;DHT22;48241;48.824;10.102;2023-05-24T12:13:36;18.80;56.60
62259;DHT22;48241;48.824;10.102;2023-05-24T12:16:03;17.80;54.90
62259;DHT22;48241;48.824;10.102;2023-05-24T12:18:29;18.10;53.40
62259;DHT22;48241;48.824;10.102;2023-05-24T12:20:55;18.20;53.70
62259;DHT22;48241;48.824;10.102;2023-05-24T12:23:25;17.70;55.10
62259;DHT22;48241;48.824;10.102;2023-05-24T12:25:59;17.90;54.90
62259;DHT22;48241;48.824;10.102;2023-05-24T12:28:26;18.10;54.90
62259;DHT22;48241;48.824;10.102;2023-05-24T12:30:52;18.60;54.80
62259;DHT22;48241;48.824;10.102;2023-05-24T12:33:18;19.00;52.90
62259;DHT22;48241;48.824;10.102;2023-05-24T12:35:45;19.50;52.30
62259;DHT22;48241;48.824;10.102;2023-05-24T12:38:11;20.00;50.80
62259;DHT22;48241;48.824;10.102;2023-05-24T12:40:41;20.50;51.80
62259;DHT22;48241;48.824;10.102;2023-05-24T12:43:06;20.20;51.80
62259;DHT22;48241;48.824;10.102;2023-05-24T12:45:32;20.90;51.90
62259;DHT22;48241;48.824;10.102;2023-05-24T12:47:59;20.40;50.40
62259;DHT22;48241;48.824;10.102;2023-05-24T12:50:27;20.50;50.80
62259;DHT22;48241;48.824;10.102;2023-05-24T12:52:52;20.20;49.20
62259;DHT22;48241;48.824;10.102;2023-05-24T12:55:22;20.50;49.40
62259;DHT22;48241;48.824;10.102;2023-05-24T12:57:49;19.40;49.30
62259;DHT22;48241;48.824;10.102;2023-05-24T13:00:19;18.90;48.70
62259;DHT22;48241;48.824;10.102;2023-05-24T13:02:46;18.30;47.30
62259;DHT22;48241;48.824;10.102;2023-05-24T13:05:12;18.00;50.00
62259;DHT22;48241;48.824;10.102;2023-05-24T13:07:38;17.80;51.30
62259;DHT22;48241;48.824;10.102;2023-05-24T13:10:05;18.10;52.90
62259;DHT22;48241;48.824;10.102;2023-05-24T13:12:31;16.70;53.20
62259;DHT22;48241;48.824;10.102;2023-05-24T13:14:57;17.20;52.20
62259;DHT22;48241;48.824;10.102;2023-05-24T13:17:22;17.70;53.00
62259;DHT22;48241;48.824;10.102;2023-05-24T13:19:48;18.10;53.00
62259;DHT22;48241;48.824;10.102;2023-05-24T13:22:14;17.20;55.90
62259;DHT22;48241;48.824;10.102;2023-05-24T13:24:39;16.60;55.50
62259;DHT22;48241;48.824;10.102;2023-05-24T13:27:05;17.10;54.30
62259;DHT22;48241;48.824;10.102;2023-05-24T13:29:34;15.60;57.20
62259;DHT22;48241;48.824;10.102;2023-05-24T13:32:44;17.70;57.30
62259;DHT22;48241;48.824;10.102;2023-05-24T13:35:12;16.70;54.60
62259;DHT22;48241;48.824;10.102;2023-05-24T14:19:49;19.40;51.90
62259;DHT22;48241;48.824;10.102;2023-05-24T14:25:42;20.20;49.80
62259;DHT22;48241;48.824;10.102;2023-05-24T14:28:11;20.10;47.10
62259;DHT22;48241;48.824;10.102;2023-05-24T14:38:05;18.60;48.10
62259;DHT22;48241;48.824;10.102;2023-05-24T14:40:33;18.00;49.90
62259;DHT22;48241;48.824;10.102;2023-05-24T14:43:04;18.50;50.00
62259;DHT22;48241;48.824;10.102;2023-05-24T14:45:33;18.10;49.60
62259;DHT22;48241;48.824;10.102;2023-05-24T14:48:09;18.10;49.80
62259;DHT22;48241;48.824;10.102;2023-05-24T14:50:51;18.00;48.60
62259;DHT22;48241;48.824;10.102;2023-05-24T14:53:34;19.70;49.20
62259;DHT22;48241;48.824;10.102;2023-05-24T14:56:09;18.60;48.60
62259;DHT22;48241;48.824;10.102;2023-05-24T14:58:38;18.50;48.60
62259;DHT22;48241;48.824;10.102;2023-05-24T15:01:07;19.10;49.10
62259;DHT22;48241;48.824;10.102;2023-05-24T15:03:38;18.40;49.30
62259;DHT22;48241;48.824;10.102;2023-05-24T15:06:04;18.10;49.70
62259;DHT22;48241;48.824;10.102;2023-05-24T15:08:29;18.20;49.20
62259;DHT22;48241;48.824;10.102;2023-05-24T15:10:55;17.90;49.40
62259;DHT22;48241;48.824;10.102;2023-05-24T15:13:24;17.80;49.70
62259;DHT22;48241;48.824;10.102;2023-05-24T15:15:50;17.90;47.90
62259;DHT22;48241;48.824;10.102;2023-05-24T15:18:18;17.90;48.40
62259;DHT22;48241;48.824;10.102;2023-05-24T15:20:43;18.40;49.90
62259;DHT22;48241;48.824;10.102;2023-05-24T15:23:09;19.10;50.10
62259;DHT22;48241;48.824;10.102;2023-05-24T15:25:38;18.30;45.20
62259;DHT22;48241;48.824;10.102;2023-05-24T15:28:18;18.40;42.80
62259;DHT22;48241;48.824;10.102;2023-05-24T15:30:50;18.30;43.00
62259;DHT22;48241;48.824;10.102;2023-05-24T15:33:18;18.20;42.70
62259;DHT22;48241;48.824;10.102;2023-05-24T15:35:46;18.40;42.90
62259;DHT22;48241;48.824;10.102;2023-05-24T15:38:12;19.20;41.60
62259;DHT22;48241;48.824;10.102;2023-05-24T15:40:38;19.30;40.20
62259;DHT22;48241;48.824;10.102;2023-05-24T15:43:06;18.30;40.30
62259;DHT22;48241;48.824;10.102;2023-05-24T15:45:32;18.90;40.70
62259;DHT22;48241;48.824;10.102;2023-05-24T15:48:00;18.50;40.10
62259;DHT22;48241;48.824;10.102;2023-05-24T15:50:26;17.80;40.60
62259;DHT22;48241;48.824;10.102;2023-05-24T15:52:52;18.40;40.80
62259;DHT22;48241;48.824;10.102;2023-05-24T15:55:17;18.50;42.70
62259;DHT22;48241;48.824;10.102;2023-05-24T15:57:43;17.60;42.50
62259;DHT22;48241;48.824;10.102;2023-05-24T16:00:09;18.10;43.30
62259;DHT22;48241;48.824;10.102;2023-05-24T16:02:35;17.50;42.60
62259;DHT22;48241;48.824;10.102;2023-05-24T16:05:00;17.00;42.30
62259;DHT22;48241;48.824;10.102;2023-05-24T16:07:26;17.60;43.30
62259;DHT22;48241;48.824;10.102;2023-05-24T16:09:52;17.40;44.90
62259;DHT22;48241;48.824;10.102;2023-05-24T16:12:18;17.00;44.90
62259;DHT22;48241;48.824;10.102;2023-05-24T16:14:44;16.80;45.40
62259;DHT22;48241;48.824;10.102;2023-05-24T16:17:13;17.10;45.50
62259;DHT22;48241;48.824;10.102;2023-05-24T16:19:40;17.30;46.20
62259;DHT22;48241;48.824;10.102;2023-05-24T16:22:06;17.20;45.80
62259;DHT22;48241;48.824;10.102;2023-05-24T16:24:32;18.30;46.40
62259;DHT22;48241;48.824;10.102;2023-05-24T16:26:58;17.30;45.60
62259;DHT22;48241;48.824;10.102;2023-05-24T16:29:27;17.50;46.10